Big Bear Station Historical Data
Daily Summary for August 17, 2017 Units:  English    Metric   Both
« Previous Day
Next Day »
Daily Weekly Monthly Yearly Custom
  High: Low: Average:
Temperature: 82.8 °F 46.4 °F 62.2 °F
Dew Point: 52.7 °F 39.1 °F 44.6 °F
Humidity: 86 % 24 % 57 %
Wind Speed: 6.3 mph 0.0 mph 1.3 mph
Wind Gust: -999.0 mph - -
Wind:- - WSW
Pressure: 30.29 in 30.22 in -
Precipitation: 0.00 in    
Historical Graphs
 
 
Tabular Data for August 17, 2017
Time Temperature Dew Point Pressure Wind Wind Speed Wind Gust Humidity Rainfall Rate (Hourly)
00:01 52.0 °F 39.8 °F 30.23 in Calm   -999.0 mph 63 % 0 in
00:16 51.6 °F 41.0 °F 30.23 in Calm   -999.0 mph 67 % 0 in
00:32 51.3 °F 41.8 °F 30.23 in Calm   -999.0 mph 70 % 0 in
00:47 50.7 °F 41.6 °F 30.23 in Calm   -999.0 mph 71 % 0 in
01:02 50.9 °F 42.2 °F 30.23 in Calm   -999.0 mph 72 % 0 in
01:17 50.4 °F 42.1 °F 30.23 in Calm   -999.0 mph 73 % 0 in
01:32 50.2 °F 41.5 °F 30.23 in Calm   -999.0 mph 72 % 0 in
01:48 49.8 °F 40.0 °F 30.22 in Calm   -999.0 mph 69 % 0 in
02:03 49.6 °F 39.1 °F 30.23 in Calm   -999.0 mph 67 % 0 in
02:18 49.5 °F 39.4 °F 30.22 in Calm   -999.0 mph 68 % 0 in
02:33 49.3 °F 39.9 °F 30.22 in Calm   -999.0 mph 70 % 0 in
02:48 48.9 °F 40.3 °F 30.22 in Calm   -999.0 mph 72 % 0 in
03:04 48.7 °F 41.1 °F 30.22 in Calm   -999.0 mph 75 % 0 in
03:19 48.6 °F 40.7 °F 30.22 in Calm   -999.0 mph 74 % 0 in
03:34 48.6 °F 41.0 °F 30.22 in Calm   -999.0 mph 75 % 0 in
03:49 48.2 °F 41.3 °F 30.22 in Calm   -999.0 mph 77 % 0 in
04:05 48.0 °F 41.8 °F 30.22 in Calm   -999.0 mph 79 % 0 in
04:20 47.7 °F 41.8 °F 30.22 in Calm   -999.0 mph 80 % 0 in
04:35 47.5 °F 41.6 °F 30.22 in Calm   -999.0 mph 80 % 0 in
04:50 47.5 °F 42.0 °F 30.22 in Calm   -999.0 mph 81 % 0 in
05:05 47.3 °F 42.4 °F 30.22 in Calm   -999.0 mph 83 % 0 in
05:21 47.1 °F 41.9 °F 30.23 in Calm   -999.0 mph 82 % 0 in
05:36 46.8 °F 42.2 °F 30.23 in Calm   -999.0 mph 84 % 0 in
05:51 46.6 °F 42.3 °F 30.23 in Calm   -999.0 mph 85 % 0 in
06:06 46.6 °F 42.3 °F 30.24 in Calm   -999.0 mph 85 % 0 in
06:21 46.4 °F 41.8 °F 30.25 in Calm   -999.0 mph 84 % 0 in
06:37 46.6 °F 42.0 °F 30.25 in Calm   -999.0 mph 84 % 0 in
06:52 46.9 °F 42.3 °F 30.25 in Calm   -999.0 mph 84 % 0 in
07:07 46.6 °F 42.3 °F 30.25 in Calm   -999.0 mph 85 % 0 in
07:22 47.1 °F 42.8 °F 30.25 in Calm   -999.0 mph 85 % 0 in
07:37 48.2 °F 43.9 °F 30.26 in Calm   -999.0 mph 85 % 0 in
07:53 48.4 °F 44.4 °F 30.26 in Calm   -999.0 mph 86 % 0 in
08:08 49.8 °F 44.8 °F 30.27 in Calm   -999.0 mph 83 % 0 in
08:23 51.3 °F 44.3 °F 30.26 in Calm   -999.0 mph 77 % 0 in
08:38 53.4 °F 43.1 °F 30.27 in Calm   -999.0 mph 68 % 0 in
08:53 55.9 °F 44.7 °F 30.27 in Calm   -999.0 mph 66 % 0 in
09:09 60.4 °F 46.5 °F 30.27 in SSE 1.7 mph -999.0 mph 60 % 0 in
09:24 63.7 °F 40.8 °F 30.27 in WNW 2.2 mph -999.0 mph 43 % 0 in
09:39 66.0 °F 41.6 °F 30.27 in NW 3.2 mph -999.0 mph 41 % 0 in
09:54 67.3 °F 40.8 °F 30.27 in ESE 1.7 mph -999.0 mph 38 % 0 in
10:10 68.5 °F 41.9 °F 30.27 in North 3.2 mph -999.0 mph 38 % 0 in
10:25 70.0 °F 43.2 °F 30.27 in ESE 1.1 mph -999.0 mph 38 % 0 in
10:40 71.4 °F 43.1 °F 30.27 in SW 5.8 mph -999.0 mph 36 % 0 in
10:55 73.0 °F 43.7 °F 30.28 in ENE 2.7 mph -999.0 mph 35 % 0 in
11:11 73.9 °F 43.0 °F 30.28 in NNW 5.8 mph -999.0 mph 33 % 0 in
11:26 75.9 °F 43.1 °F 30.28 in North 4.7 mph -999.0 mph 31 % 0 in
11:42 76.1 °F 44.1 °F 30.28 in NNW 2.2 mph -999.0 mph 32 % 0 in
11:57 76.1 °F 43.3 °F 30.28 in NNW 3.2 mph -999.0 mph 31 % 0 in
12:12 77.2 °F 43.4 °F 30.27 in ENE 1.7 mph -999.0 mph 30 % 0 in
12:28 78.6 °F 42.8 °F 30.27 in NW 2.2 mph -999.0 mph 28 % 0 in
12:43 78.8 °F 43.9 °F 30.27 in WSW 1.7 mph -999.0 mph 29 % 0 in
12:58 79.0 °F 43.1 °F 30.27 in NNW 2.2 mph -999.0 mph 28 % 0 in
13:14 79.0 °F 41.2 °F 30.27 in ESE 2.2 mph -999.0 mph 26 % 0 in
13:29 79.7 °F 41.8 °F 30.27 in ESE 1.1 mph -999.0 mph 26 % 0 in
13:44 81.3 °F 43.1 °F 30.26 in NE 3.2 mph -999.0 mph 26 % 0 in
14:00 82.8 °F 42.3 °F 30.26 in WNW 3.2 mph -999.0 mph 24 % 0 in
14:15 81.0 °F 49.2 °F 30.26 in NW 4.2 mph -999.0 mph 33 % 0 in
14:30 81.9 °F 45.6 °F 30.26 in NW 6.3 mph -999.0 mph 28 % 0 in
14:45 80.2 °F 46.8 °F 30.25 in NW 3.2 mph -999.0 mph 31 % 0 in
15:01 80.2 °F 49.3 °F 30.25 in NE 3.2 mph -999.0 mph 34 % 0 in
15:16 78.8 °F 50.3 °F 30.25 in NW 4.7 mph -999.0 mph 37 % 0 in
15:31 78.3 °F 52.7 °F 30.25 in NNW 6.3 mph -999.0 mph 41 % 0 in
15:46 78.1 °F 51.1 °F 30.25 in NW 4.2 mph -999.0 mph 39 % 0 in
16:02 77.2 °F 51.0 °F 30.25 in NW 3.2 mph -999.0 mph 40 % 0 in
16:17 75.9 °F 50.5 °F 30.24 in NW 3.2 mph -999.0 mph 41 % 0 in
16:32 75.4 °F 51.4 °F 30.24 in ENE 2.7 mph -999.0 mph 43 % 0 in
16:47 76.5 °F 51.7 °F 30.24 in NW 6.3 mph -999.0 mph 42 % 0 in
17:02 78.6 °F 51.6 °F 30.24 in WNW 4.7 mph -999.0 mph 39 % 0 in
17:18 79.0 °F 52.6 °F 30.24 in West 4.2 mph -999.0 mph 40 % 0 in
17:33 77.9 °F 52.3 °F 30.24 in NW 4.2 mph -999.0 mph 41 % 0 in
17:49 77.4 °F 51.2 °F 30.24 in West 4.2 mph -999.0 mph 40 % 0 in
18:04 76.1 °F 51.3 °F 30.24 in West 4.2 mph -999.0 mph 42 % 0 in
18:20 74.7 °F 50.7 °F 30.24 in NW 1.7 mph -999.0 mph 43 % 0 in
18:35 74.1 °F 50.8 °F 30.25 in Calm   -999.0 mph 44 % 0 in
18:50 70.5 °F 49.3 °F 30.25 in Calm   -999.0 mph 47 % 0 in
19:06 68.7 °F 49.8 °F 30.25 in Calm   -999.0 mph 51 % 0 in
19:21 66.9 °F 49.2 °F 30.25 in Calm   -999.0 mph 53 % 0 in
19:36 65.8 °F 48.7 °F 30.26 in Calm   -999.0 mph 54 % 0 in
19:51 64.2 °F 48.7 °F 30.26 in Calm   -999.0 mph 57 % 0 in
20:06 63.0 °F 48.0 °F 30.27 in Calm   -999.0 mph 58 % 0 in
20:22 62.1 °F 47.6 °F 30.27 in Calm   -999.0 mph 59 % 0 in
20:37 61.0 °F 46.6 °F 30.27 in Calm   -999.0 mph 59 % 0 in
20:52 60.4 °F 45.6 °F 30.27 in Calm   -999.0 mph 58 % 0 in
21:07 59.7 °F 44.9 °F 30.28 in Calm   -999.0 mph 58 % 0 in
21:22 59.2 °F 44.9 °F 30.28 in Calm   -999.0 mph 59 % 0 in
21:38 58.6 °F 44.3 °F 30.28 in Calm   -999.0 mph 59 % 0 in
21:53 58.1 °F 44.3 °F 30.29 in Calm   -999.0 mph 60 % 0 in
22:08 57.2 °F 43.9 °F 30.28 in Calm   -999.0 mph 61 % 0 in
22:23 56.7 °F 43.4 °F 30.29 in Calm   -999.0 mph 61 % 0 in
22:38 55.9 °F 43.1 °F 30.29 in Calm   -999.0 mph 62 % 0 in
22:54 55.4 °F 42.6 °F 30.29 in Calm   -999.0 mph 62 % 0 in
23:09 55.2 °F 43.2 °F 30.28 in Calm   -999.0 mph 64 % 0 in
23:24 54.9 °F 43.4 °F 30.28 in Calm   -999.0 mph 65 % 0 in
23:39 54.5 °F 43.4 °F 30.28 in Calm   -999.0 mph 66 % 0 in
23:54 54.0 °F 43.3 °F 30.28 in Calm   -999.0 mph 67 % 0 in
Big Bear CA Weather
Compliments of Weather Underground - 1.5 mb